sensor_id;sensor_type;location;lat;lon;timestamp;P1;durP1;ratioP1;P2;durP2;ratioP2
59854;SDS011;45732;52.850;6.896;2023-03-23T00:01:19;13.15;;;8.80;;
59854;SDS011;45732;52.850;6.896;2023-03-23T00:03:48;14.07;;;8.80;;
59854;SDS011;45732;52.850;6.896;2023-03-23T00:06:15;13.02;;;8.95;;
59854;SDS011;45732;52.850;6.896;2023-03-23T00:08:45;13.98;;;8.40;;
59854;SDS011;45732;52.850;6.896;2023-03-23T00:11:15;13.85;;;8.90;;
59854;SDS011;45732;52.850;6.896;2023-03-23T00:13:46;12.48;;;8.27;;
59854;SDS011;45732;52.850;6.896;2023-03-23T00:16:16;12.18;;;8.75;;
59854;SDS011;45732;52.850;6.896;2023-03-23T00:18:55;11.15;;;8.07;;
59854;SDS011;45732;52.850;6.896;2023-03-23T00:21:23;14.30;;;8.02;;
59854;SDS011;45732;52.850;6.896;2023-03-23T00:24:02;12.35;;;8.65;;
59854;SDS011;45732;52.850;6.896;2023-03-23T00:26:32;15.13;;;8.10;;
59854;SDS011;45732;52.850;6.896;2023-03-23T00:29:03;12.07;;;8.45;;
59854;SDS011;45732;52.850;6.896;2023-03-23T00:31:29;13.18;;;8.43;;
59854;SDS011;45732;52.850;6.896;2023-03-23T00:34:01;11.68;;;8.23;;
59854;SDS011;45732;52.850;6.896;2023-03-23T00:36:29;13.73;;;7.95;;
59854;SDS011;45732;52.850;6.896;2023-03-23T00:38:56;12.00;;;7.63;;
59854;SDS011;45732;52.850;6.896;2023-03-23T00:41:27;12.40;;;7.80;;
59854;SDS011;45732;52.850;6.896;2023-03-23T00:43:54;11.02;;;7.72;;
59854;SDS011;45732;52.850;6.896;2023-03-23T00:46:21;11.40;;;7.25;;
59854;SDS011;45732;52.850;6.896;2023-03-23T00:48:48;12.73;;;7.80;;
59854;SDS011;45732;52.850;6.896;2023-03-23T00:51:15;14.52;;;7.78;;
59854;SDS011;45732;52.850;6.896;2023-03-23T00:53:44;11.90;;;7.10;;
59854;SDS011;45732;52.850;6.896;2023-03-23T00:56:11;12.25;;;7.65;;
59854;SDS011;45732;52.850;6.896;2023-03-23T00:58:38;11.20;;;7.60;;
59854;SDS011;45732;52.850;6.896;2023-03-23T01:01:04;11.13;;;7.20;;
59854;SDS011;45732;52.850;6.896;2023-03-23T01:03:30;11.10;;;6.57;;
59854;SDS011;45732;52.850;6.896;2023-03-23T01:05:56;10.55;;;6.20;;
59854;SDS011;45732;52.850;6.896;2023-03-23T01:08:22;11.77;;;5.93;;
59854;SDS011;45732;52.850;6.896;2023-03-23T01:10:49;9.43;;;5.28;;
59854;SDS011;45732;52.850;6.896;2023-03-23T01:13:15;8.75;;;4.43;;
59854;SDS011;45732;52.850;6.896;2023-03-23T01:15:41;8.18;;;4.68;;
59854;SDS011;45732;52.850;6.896;2023-03-23T01:18:08;8.73;;;4.70;;
59854;SDS011;45732;52.850;6.896;2023-03-23T01:20:35;8.10;;;4.53;;
59854;SDS011;45732;52.850;6.896;2023-03-23T01:23:01;7.72;;;3.85;;
59854;SDS011;45732;52.850;6.896;2023-03-23T01:25:28;9.45;;;4.07;;
59854;SDS011;45732;52.850;6.896;2023-03-23T01:27:55;7.38;;;4.20;;
59854;SDS011;45732;52.850;6.896;2023-03-23T01:30:21;8.57;;;4.10;;
59854;SDS011;45732;52.850;6.896;2023-03-23T01:32:48;9.45;;;4.13;;
59854;SDS011;45732;52.850;6.896;2023-03-23T01:35:14;7.70;;;4.20;;
59854;SDS011;45732;52.850;6.896;2023-03-23T01:37:41;8.63;;;3.90;;
59854;SDS011;45732;52.850;6.896;2023-03-23T01:40:07;9.10;;;4.25;;
59854;SDS011;45732;52.850;6.896;2023-03-23T01:42:34;9.38;;;4.93;;
59854;SDS011;45732;52.850;6.896;2023-03-23T01:48:07;9.38;;;4.85;;
59854;SDS011;45732;52.850;6.896;2023-03-23T01:51:08;9.75;;;5.07;;
59854;SDS011;45732;52.850;6.896;2023-03-23T01:53:40;10.73;;;5.50;;
59854;SDS011;45732;52.850;6.896;2023-03-23T01:56:10;9.18;;;4.90;;
59854;SDS011;45732;52.850;6.896;2023-03-23T01:58:38;8.10;;;4.70;;
59854;SDS011;45732;52.850;6.896;2023-03-23T02:01:05;9.00;;;5.00;;
59854;SDS011;45732;52.850;6.896;2023-03-23T02:03:36;8.95;;;5.00;;
59854;SDS011;45732;52.850;6.896;2023-03-23T02:06:04;8.05;;;4.53;;
59854;SDS011;45732;52.850;6.896;2023-03-23T02:08:30;9.32;;;4.70;;
59854;SDS011;45732;52.850;6.896;2023-03-23T02:10:58;9.20;;;4.80;;
59854;SDS011;45732;52.850;6.896;2023-03-23T02:13:24;9.85;;;4.90;;
59854;SDS011;45732;52.850;6.896;2023-03-23T02:15:57;10.23;;;4.80;;
59854;SDS011;45732;52.850;6.896;2023-03-23T02:22:22;8.95;;;4.80;;
59854;SDS011;45732;52.850;6.896;2023-03-23T02:27:17;8.85;;;4.43;;
59854;SDS011;45732;52.850;6.896;2023-03-23T02:35:52;8.50;;;3.97;;
59854;SDS011;45732;52.850;6.896;2023-03-23T02:38:23;9.00;;;4.30;;
59854;SDS011;45732;52.850;6.896;2023-03-23T02:40:55;8.93;;;4.60;;
59854;SDS011;45732;52.850;6.896;2023-03-23T02:43:25;8.98;;;4.22;;
59854;SDS011;45732;52.850;6.896;2023-03-23T02:45:54;6.63;;;3.78;;
59854;SDS011;45732;52.850;6.896;2023-03-23T02:48:24;10.73;;;4.72;;
59854;SDS011;45732;52.850;6.896;2023-03-23T02:50:53;8.63;;;4.43;;
59854;SDS011;45732;52.850;6.896;2023-03-23T02:53:23;9.35;;;4.20;;
59854;SDS011;45732;52.850;6.896;2023-03-23T02:55:51;9.02;;;4.53;;
59854;SDS011;45732;52.850;6.896;2023-03-23T02:58:20;9.35;;;6.18;;
59854;SDS011;45732;52.850;6.896;2023-03-23T03:00:48;8.75;;;4.43;;
59854;SDS011;45732;52.850;6.896;2023-03-23T03:03:15;9.70;;;4.50;;
59854;SDS011;45732;52.850;6.896;2023-03-23T03:11:26;9.57;;;4.50;;
59854;SDS011;45732;52.850;6.896;2023-03-23T03:13:53;8.90;;;4.72;;
59854;SDS011;45732;52.850;6.896;2023-03-23T03:19:28;8.17;;;4.33;;
59854;SDS011;45732;52.850;6.896;2023-03-23T03:21:56;9.00;;;4.68;;
59854;SDS011;45732;52.850;6.896;2023-03-23T03:24:24;8.13;;;4.40;;
59854;SDS011;45732;52.850;6.896;2023-03-23T03:26:53;8.88;;;4.70;;
59854;SDS011;45732;52.850;6.896;2023-03-23T03:29:30;9.40;;;4.38;;
59854;SDS011;45732;52.850;6.896;2023-03-23T03:31:59;8.80;;;4.40;;
59854;SDS011;45732;52.850;6.896;2023-03-23T03:34:27;7.85;;;3.85;;
59854;SDS011;45732;52.850;6.896;2023-03-23T03:36:54;8.13;;;4.10;;
59854;SDS011;45732;52.850;6.896;2023-03-23T03:39:23;8.63;;;4.13;;
59854;SDS011;45732;52.850;6.896;2023-03-23T03:41:50;13.00;;;8.77;;
59854;SDS011;45732;52.850;6.896;2023-03-23T03:44:15;7.35;;;4.07;;
59854;SDS011;45732;52.850;6.896;2023-03-23T03:46:41;7.68;;;3.92;;
59854;SDS011;45732;52.850;6.896;2023-03-23T03:49:08;9.20;;;4.30;;
59854;SDS011;45732;52.850;6.896;2023-03-23T03:51:37;9.18;;;4.47;;
59854;SDS011;45732;52.850;6.896;2023-03-23T03:54:03;9.48;;;4.80;;
59854;SDS011;45732;52.850;6.896;2023-03-23T03:56:28;7.72;;;3.97;;
59854;SDS011;45732;52.850;6.896;2023-03-23T03:58:56;8.25;;;4.50;;
59854;SDS011;45732;52.850;6.896;2023-03-23T04:01:22;8.52;;;4.70;;
59854;SDS011;45732;52.850;6.896;2023-03-23T04:03:49;9.50;;;4.50;;
59854;SDS011;45732;52.850;6.896;2023-03-23T04:06:16;8.30;;;4.30;;
59854;SDS011;45732;52.850;6.896;2023-03-23T04:08:42;8.18;;;4.30;;
59854;SDS011;45732;52.850;6.896;2023-03-23T04:11:10;8.48;;;4.60;;
59854;SDS011;45732;52.850;6.896;2023-03-23T04:13:37;8.18;;;4.30;;
59854;SDS011;45732;52.850;6.896;2023-03-23T04:16:04;8.10;;;4.72;;
59854;SDS011;45732;52.850;6.896;2023-03-23T04:18:31;8.38;;;5.30;;
59854;SDS011;45732;52.850;6.896;2023-03-23T04:20:59;8.10;;;4.60;;
59854;SDS011;45732;52.850;6.896;2023-03-23T04:23:26;7.70;;;4.28;;
59854;SDS011;45732;52.850;6.896;2023-03-23T04:25:55;9.27;;;5.15;;
59854;SDS011;45732;52.850;6.896;2023-03-23T04:28:23;8.40;;;4.63;;
59854;SDS011;45732;52.850;6.896;2023-03-23T04:30:50;8.20;;;4.72;;
59854;SDS011;45732;52.850;6.896;2023-03-23T04:33:21;9.82;;;4.60;;
59854;SDS011;45732;52.850;6.896;2023-03-23T04:35:50;8.20;;;4.78;;
59854;SDS011;45732;52.850;6.896;2023-03-23T04:38:17;9.43;;;5.05;;
59854;SDS011;45732;52.850;6.896;2023-03-23T04:40:47;8.43;;;5.00;;
59854;SDS011;45732;52.850;6.896;2023-03-23T04:43:16;8.15;;;4.47;;
59854;SDS011;45732;52.850;6.896;2023-03-23T04:45:46;8.63;;;4.40;;
59854;SDS011;45732;52.850;6.896;2023-03-23T04:48:16;8.95;;;4.57;;
59854;SDS011;45732;52.850;6.896;2023-03-23T04:50:43;8.93;;;4.38;;
59854;SDS011;45732;52.850;6.896;2023-03-23T04:53:09;10.88;;;4.65;;
59854;SDS011;45732;52.850;6.896;2023-03-23T04:55:36;9.48;;;5.03;;
59854;SDS011;45732;52.850;6.896;2023-03-23T04:58:05;9.82;;;4.50;;
59854;SDS011;45732;52.850;6.896;2023-03-23T05:00:33;8.98;;;5.20;;
59854;SDS011;45732;52.850;6.896;2023-03-23T05:03:00;9.00;;;4.53;;
59854;SDS011;45732;52.850;6.896;2023-03-23T05:05:26;9.63;;;4.70;;
59854;SDS011;45732;52.850;6.896;2023-03-23T05:07:54;7.72;;;4.32;;
59854;SDS011;45732;52.850;6.896;2023-03-23T05:10:20;11.38;;;4.45;;
59854;SDS011;45732;52.850;6.896;2023-03-23T05:12:46;11.32;;;5.50;;
59854;SDS011;45732;52.850;6.896;2023-03-23T05:15:12;9.70;;;4.95;;
59854;SDS011;45732;52.850;6.896;2023-03-23T05:17:39;10.55;;;4.65;;
59854;SDS011;45732;52.850;6.896;2023-03-23T05:20:12;8.20;;;4.90;;
59854;SDS011;45732;52.850;6.896;2023-03-23T05:22:40;11.00;;;5.32;;
59854;SDS011;45732;52.850;6.896;2023-03-23T05:25:06;12.00;;;2.50;;
59854;SDS011;45732;52.850;6.896;2023-03-23T05:27:36;8.15;;;2.00;;
59854;SDS011;45732;52.850;6.896;2023-03-23T05:30:03;6.88;;;1.95;;
59854;SDS011;45732;52.850;6.896;2023-03-23T05:32:30;8.32;;;2.35;;
59854;SDS011;45732;52.850;6.896;2023-03-23T05:34:56;11.20;;;3.00;;
59854;SDS011;45732;52.850;6.896;2023-03-23T05:37:23;9.38;;;3.22;;
59854;SDS011;45732;52.850;6.896;2023-03-23T05:39:52;10.63;;;2.80;;
59854;SDS011;45732;52.850;6.896;2023-03-23T05:42:21;9.93;;;3.25;;
59854;SDS011;45732;52.850;6.896;2023-03-23T05:44:47;8.85;;;3.10;;
59854;SDS011;45732;52.850;6.896;2023-03-23T05:47:13;10.75;;;3.20;;
59854;SDS011;45732;52.850;6.896;2023-03-23T05:49:39;7.15;;;2.50;;
59854;SDS011;45732;52.850;6.896;2023-03-23T05:52:05;10.52;;;2.90;;
59854;SDS011;45732;52.850;6.896;2023-03-23T05:54:30;9.27;;;3.33;;
59854;SDS011;45732;52.850;6.896;2023-03-23T05:56:56;8.27;;;2.88;;
59854;SDS011;45732;52.850;6.896;2023-03-23T05:59:22;11.20;;;3.17;;
59854;SDS011;45732;52.850;6.896;2023-03-23T06:01:48;7.95;;;2.72;;
59854;SDS011;45732;52.850;6.896;2023-03-23T06:04:15;7.45;;;2.97;;
59854;SDS011;45732;52.850;6.896;2023-03-23T06:06:42;10.88;;;3.78;;
59854;SDS011;45732;52.850;6.896;2023-03-23T06:09:08;10.30;;;3.38;;
59854;SDS011;45732;52.850;6.896;2023-03-23T06:11:34;10.80;;;3.50;;
59854;SDS011;45732;52.850;6.896;2023-03-23T06:14:00;9.48;;;3.42;;
59854;SDS011;45732;52.850;6.896;2023-03-23T06:16:26;7.68;;;3.55;;
59854;SDS011;45732;52.850;6.896;2023-03-23T06:18:52;9.20;;;3.63;;
59854;SDS011;45732;52.850;6.896;2023-03-23T06:21:18;10.38;;;4.07;;
59854;SDS011;45732;52.850;6.896;2023-03-23T06:23:44;11.30;;;3.63;;
59854;SDS011;45732;52.850;6.896;2023-03-23T06:26:11;9.45;;;3.30;;
59854;SDS011;45732;52.850;6.896;2023-03-23T06:28:41;9.50;;;3.08;;
59854;SDS011;45732;52.850;6.896;2023-03-23T06:31:07;8.10;;;2.70;;
59854;SDS011;45732;52.850;6.896;2023-03-23T06:33:33;6.68;;;2.60;;
59854;SDS011;45732;52.850;6.896;2023-03-23T06:36:00;9.10;;;2.63;;
59854;SDS011;45732;52.850;6.896;2023-03-23T06:38:27;8.50;;;2.65;;
59854;SDS011;45732;52.850;6.896;2023-03-23T06:40:52;8.45;;;2.67;;
59854;SDS011;45732;52.850;6.896;2023-03-23T06:43:19;8.50;;;2.50;;
59854;SDS011;45732;52.850;6.896;2023-03-23T06:45:45;11.95;;;3.03;;
59854;SDS011;45732;52.850;6.896;2023-03-23T06:48:11;12.05;;;2.92;;
59854;SDS011;45732;52.850;6.896;2023-03-23T06:50:37;10.32;;;2.47;;
59854;SDS011;45732;52.850;6.896;2023-03-23T06:53:03;10.90;;;2.78;;
59854;SDS011;45732;52.850;6.896;2023-03-23T06:55:28;12.40;;;2.80;;
59854;SDS011;45732;52.850;6.896;2023-03-23T06:57:54;11.45;;;2.72;;
59854;SDS011;45732;52.850;6.896;2023-03-23T07:00:20;13.60;;;3.10;;
59854;SDS011;45732;52.850;6.896;2023-03-23T07:02:45;11.38;;;3.00;;
59854;SDS011;45732;52.850;6.896;2023-03-23T07:05:12;13.32;;;3.30;;
59854;SDS011;45732;52.850;6.896;2023-03-23T07:07:38;10.02;;;2.90;;
59854;SDS011;45732;52.850;6.896;2023-03-23T07:10:05;13.18;;;3.40;;
59854;SDS011;45732;52.850;6.896;2023-03-23T07:12:34;13.23;;;3.75;;
59854;SDS011;45732;52.850;6.896;2023-03-23T07:15:01;11.25;;;3.00;;
59854;SDS011;45732;52.850;6.896;2023-03-23T07:17:27;14.15;;;3.65;;
59854;SDS011;45732;52.850;6.896;2023-03-23T07:19:53;14.02;;;3.13;;
59854;SDS011;45732;52.850;6.896;2023-03-23T07:22:19;11.30;;;3.67;;
59854;SDS011;45732;52.850;6.896;2023-03-23T07:24:45;13.52;;;3.25;;
59854;SDS011;45732;52.850;6.896;2023-03-23T07:27:11;13.00;;;3.40;;
59854;SDS011;45732;52.850;6.896;2023-03-23T07:29:37;15.07;;;3.35;;
59854;SDS011;45732;52.850;6.896;2023-03-23T07:32:04;10.98;;;3.42;;
59854;SDS011;45732;52.850;6.896;2023-03-23T07:34:31;15.10;;;3.78;;
59854;SDS011;45732;52.850;6.896;2023-03-23T07:36:57;14.43;;;4.28;;
59854;SDS011;45732;52.850;6.896;2023-03-23T07:39:23;13.32;;;4.07;;
59854;SDS011;45732;52.850;6.896;2023-03-23T07:41:50;12.30;;;3.72;;
59854;SDS011;45732;52.850;6.896;2023-03-23T07:44:16;14.02;;;3.63;;
59854;SDS011;45732;52.850;6.896;2023-03-23T07:46:42;12.63;;;4.10;;
59854;SDS011;45732;52.850;6.896;2023-03-23T07:49:08;11.35;;;3.85;;
59854;SDS011;45732;52.850;6.896;2023-03-23T07:51:35;15.02;;;3.75;;
59854;SDS011;45732;52.850;6.896;2023-03-23T07:54:03;14.23;;;4.00;;
59854;SDS011;45732;52.850;6.896;2023-03-23T07:56:29;16.00;;;4.00;;
59854;SDS011;45732;52.850;6.896;2023-03-23T07:58:55;12.65;;;3.85;;
59854;SDS011;45732;52.850;6.896;2023-03-23T08:01:21;11.90;;;3.83;;
59854;SDS011;45732;52.850;6.896;2023-03-23T08:03:49;16.45;;;4.80;;
59854;SDS011;45732;52.850;6.896;2023-03-23T08:06:16;9.38;;;3.28;;
59854;SDS011;45732;52.850;6.896;2023-03-23T08:08:42;11.00;;;3.67;;
59854;SDS011;45732;52.850;6.896;2023-03-23T08:11:08;14.45;;;3.70;;
59854;SDS011;45732;52.850;6.896;2023-03-23T08:13:33;12.68;;;3.47;;
59854;SDS011;45732;52.850;6.896;2023-03-23T08:16:00;13.10;;;3.90;;
59854;SDS011;45732;52.850;6.896;2023-03-23T08:18:30;15.50;;;3.60;;
59854;SDS011;45732;52.850;6.896;2023-03-23T08:20:56;13.90;;;3.65;;
59854;SDS011;45732;52.850;6.896;2023-03-23T08:23:23;19.58;;;3.88;;
59854;SDS011;45732;52.850;6.896;2023-03-23T08:25:49;15.93;;;3.60;;
59854;SDS011;45732;52.850;6.896;2023-03-23T08:28:14;13.77;;;3.58;;
59854;SDS011;45732;52.850;6.896;2023-03-23T08:30:40;16.42;;;4.00;;
59854;SDS011;45732;52.850;6.896;2023-03-23T08:33:06;17.42;;;4.03;;
59854;SDS011;45732;52.850;6.896;2023-03-23T08:35:33;16.20;;;3.80;;
59854;SDS011;45732;52.850;6.896;2023-03-23T08:37:59;19.95;;;4.75;;
59854;SDS011;45732;52.850;6.896;2023-03-23T08:40:25;15.93;;;4.32;;
59854;SDS011;45732;52.850;6.896;2023-03-23T08:42:52;21.23;;;4.78;;
59854;SDS011;45732;52.850;6.896;2023-03-23T08:45:23;17.65;;;4.57;;
59854;SDS011;45732;52.850;6.896;2023-03-23T08:47:50;17.88;;;4.30;;
59854;SDS011;45732;52.850;6.896;2023-03-23T08:50:21;21.38;;;5.20;;
59854;SDS011;45732;52.850;6.896;2023-03-23T08:52:50;16.10;;;4.65;;
59854;SDS011;45732;52.850;6.896;2023-03-23T08:55:16;16.38;;;4.47;;
59854;SDS011;45732;52.850;6.896;2023-03-23T08:57:45;18.20;;;4.63;;
59854;SDS011;45732;52.850;6.896;2023-03-23T09:00:13;15.35;;;4.53;;
59854;SDS011;45732;52.850;6.896;2023-03-23T09:02:50;19.85;;;5.55;;
59854;SDS011;45732;52.850;6.896;2023-03-23T09:05:18;13.63;;;4.28;;
59854;SDS011;45732;52.850;6.896;2023-03-23T09:07:47;16.25;;;4.18;;
59854;SDS011;45732;52.850;6.896;2023-03-23T09:10:15;13.55;;;4.72;;
59854;SDS011;45732;52.850;6.896;2023-03-23T09:12:41;16.48;;;4.50;;
59854;SDS011;45732;52.850;6.896;2023-03-23T09:15:09;17.83;;;5.32;;
59854;SDS011;45732;52.850;6.896;2023-03-23T09:17:37;16.60;;;4.47;;
59854;SDS011;45732;52.850;6.896;2023-03-23T09:20:05;16.25;;;4.90;;
59854;SDS011;45732;52.850;6.896;2023-03-23T09:22:36;15.13;;;4.47;;
59854;SDS011;45732;52.850;6.896;2023-03-23T09:25:03;18.10;;;4.57;;
59854;SDS011;45732;52.850;6.896;2023-03-23T09:27:29;15.27;;;4.10;;
59854;SDS011;45732;52.850;6.896;2023-03-23T09:29:56;14.40;;;4.95;;
59854;SDS011;45732;52.850;6.896;2023-03-23T09:32:21;15.30;;;5.03;;
59854;SDS011;45732;52.850;6.896;2023-03-23T09:34:47;15.50;;;5.10;;
59854;SDS011;45732;52.850;6.896;2023-03-23T09:37:13;17.08;;;4.97;;
59854;SDS011;45732;52.850;6.896;2023-03-23T09:39:39;18.55;;;4.93;;
59854;SDS011;45732;52.850;6.896;2023-03-23T09:42:08;17.92;;;5.32;;
59854;SDS011;45732;52.850;6.896;2023-03-23T09:47:41;16.85;;;5.32;;
59854;SDS011;45732;52.850;6.896;2023-03-23T09:50:28;16.02;;;4.60;;
59854;SDS011;45732;52.850;6.896;2023-03-23T09:53:12;14.23;;;4.75;;
59854;SDS011;45732;52.850;6.896;2023-03-23T09:55:46;13.32;;;4.60;;
59854;SDS011;45732;52.850;6.896;2023-03-23T10:01:08;15.07;;;4.82;;
59854;SDS011;45732;52.850;6.896;2023-03-23T10:03:43;12.95;;;3.78;;
59854;SDS011;45732;52.850;6.896;2023-03-23T10:06:10;15.45;;;4.45;;
59854;SDS011;45732;52.850;6.896;2023-03-23T10:08:43;14.82;;;3.63;;
59854;SDS011;45732;52.850;6.896;2023-03-23T10:16:07;13.38;;;3.63;;
59854;SDS011;45732;52.850;6.896;2023-03-23T10:21:38;18.67;;;4.10;;
59854;SDS011;45732;52.850;6.896;2023-03-23T10:24:08;10.98;;;3.50;;
59854;SDS011;45732;52.850;6.896;2023-03-23T10:29:29;11.45;;;2.97;;
59854;SDS011;45732;52.850;6.896;2023-03-23T10:32:10;11.00;;;3.20;;
59854;SDS011;45732;52.850;6.896;2023-03-23T10:34:50;11.90;;;3.70;;
59854;SDS011;45732;52.850;6.896;2023-03-23T10:37:27;11.55;;;3.33;;
59854;SDS011;45732;52.850;6.896;2023-03-23T10:40:11;10.55;;;3.38;;
59854;SDS011;45732;52.850;6.896;2023-03-23T10:42:40;12.13;;;3.20;;
59854;SDS011;45732;52.850;6.896;2023-03-23T10:45:49;12.18;;;3.78;;
59854;SDS011;45732;52.850;6.896;2023-03-23T10:50:46;9.23;;;2.75;;
59854;SDS011;45732;52.850;6.896;2023-03-23T10:53:34;11.45;;;2.95;;
59854;SDS011;45732;52.850;6.896;2023-03-23T10:56:02;8.95;;;2.47;;
59854;SDS011;45732;52.850;6.896;2023-03-23T10:58:30;11.38;;;2.72;;
59854;SDS011;45732;52.850;6.896;2023-03-23T11:00:59;13.60;;;3.00;;
59854;SDS011;45732;52.850;6.896;2023-03-23T11:06:11;8.50;;;2.65;;
59854;SDS011;45732;52.850;6.896;2023-03-23T11:11:27;11.32;;;2.63;;
59854;SDS011;45732;52.850;6.896;2023-03-23T11:14:02;10.65;;;2.55;;
59854;SDS011;45732;52.850;6.896;2023-03-23T11:16:42;8.20;;;2.17;;
59854;SDS011;45732;52.850;6.896;2023-03-23T11:19:14;8.80;;;2.15;;
59854;SDS011;45732;52.850;6.896;2023-03-23T11:21:47;12.48;;;2.35;;
59854;SDS011;45732;52.850;6.896;2023-03-23T11:24:17;10.25;;;2.33;;
59854;SDS011;45732;52.850;6.896;2023-03-23T11:26:44;10.70;;;2.40;;
59854;SDS011;45732;52.850;6.896;2023-03-23T11:31:46;10.38;;;2.50;;
59854;SDS011;45732;52.850;6.896;2023-03-23T11:36:43;10.32;;;2.42;;
59854;SDS011;45732;52.850;6.896;2023-03-23T11:39:25;13.82;;;3.10;;
59854;SDS011;45732;52.850;6.896;2023-03-23T11:41:53;8.68;;;2.10;;
59854;SDS011;45732;52.850;6.896;2023-03-23T11:44:23;9.18;;;2.60;;
59854;SDS011;45732;52.850;6.896;2023-03-23T11:47:40;12.02;;;2.75;;
59854;SDS011;45732;52.850;6.896;2023-03-23T11:49:49;9.25;;;2.85;;
59854;SDS011;45732;52.850;6.896;2023-03-23T11:52:41;12.77;;;2.63;;
59854;SDS011;45732;52.850;6.896;2023-03-23T11:55:49;10.32;;;2.22;;
59854;SDS011;45732;52.850;6.896;2023-03-23T11:58:17;11.05;;;2.75;;
59854;SDS011;45732;52.850;6.896;2023-03-23T12:06:06;12.77;;;2.83;;
59854;SDS011;45732;52.850;6.896;2023-03-23T12:19:40;8.45;;;2.33;;
59854;SDS011;45732;52.850;6.896;2023-03-23T12:32:51;12.10;;;2.92;;
59854;SDS011;45732;52.850;6.896;2023-03-23T12:43:37;10.38;;;2.60;;
59854;SDS011;45732;52.850;6.896;2023-03-23T12:49:33;11.27;;;2.83;;
59854;SDS011;45732;52.850;6.896;2023-03-23T13:10:50;8.95;;;2.17;;
59854;SDS011;45732;52.850;6.896;2023-03-23T13:13:23;11.02;;;2.67;;
59854;SDS011;45732;52.850;6.896;2023-03-23T13:16:06;10.60;;;2.63;;
59854;SDS011;45732;52.850;6.896;2023-03-23T13:18:49;11.27;;;2.38;;
59854;SDS011;45732;52.850;6.896;2023-03-23T13:21:28;10.52;;;3.28;;
59854;SDS011;45732;52.850;6.896;2023-03-23T13:24:04;9.27;;;2.28;;
59854;SDS011;45732;52.850;6.896;2023-03-23T13:26:37;12.38;;;3.08;;
59854;SDS011;45732;52.850;6.896;2023-03-23T13:31:40;10.15;;;2.13;;
59854;SDS011;45732;52.850;6.896;2023-03-23T13:34:12;7.95;;;2.30;;
59854;SDS011;45732;52.850;6.896;2023-03-23T13:39:24;8.68;;;2.28;;
59854;SDS011;45732;52.850;6.896;2023-03-23T13:44:41;8.35;;;2.10;;
59854;SDS011;45732;52.850;6.896;2023-03-23T13:58:25;10.63;;;2.47;;
59854;SDS011;45732;52.850;6.896;2023-03-23T14:02:59;10.48;;;2.13;;
59854;SDS011;45732;52.850;6.896;2023-03-23T14:05:33;10.98;;;2.20;;
59854;SDS011;45732;52.850;6.896;2023-03-23T14:16:03;11.75;;;2.67;;
59854;SDS011;45732;52.850;6.896;2023-03-23T14:18:39;8.80;;;2.13;;
59854;SDS011;45732;52.850;6.896;2023-03-23T14:21:12;10.30;;;2.08;;
59854;SDS011;45732;52.850;6.896;2023-03-23T14:23:40;8.45;;;2.00;;
59854;SDS011;45732;52.850;6.896;2023-03-23T14:26:15;8.07;;;2.15;;
59854;SDS011;45732;52.850;6.896;2023-03-23T14:28:50;10.55;;;1.98;;
59854;SDS011;45732;52.850;6.896;2023-03-23T14:33:46;14.07;;;2.40;;
59854;SDS011;45732;52.850;6.896;2023-03-23T14:36:13;10.32;;;2.28;;
59854;SDS011;45732;52.850;6.896;2023-03-23T14:38:44;7.60;;;1.80;;
59854;SDS011;45732;52.850;6.896;2023-03-23T14:41:10;11.77;;;2.30;;
59854;SDS011;45732;52.850;6.896;2023-03-23T14:43:37;7.72;;;2.08;;
59854;SDS011;45732;52.850;6.896;2023-03-23T14:46:05;10.07;;;1.92;;
59854;SDS011;45732;52.850;6.896;2023-03-23T14:48:33;10.90;;;2.03;;
59854;SDS011;45732;52.850;6.896;2023-03-23T14:51:01;9.00;;;1.95;;
59854;SDS011;45732;52.850;6.896;2023-03-23T14:53:31;9.20;;;2.72;;
59854;SDS011;45732;52.850;6.896;2023-03-23T14:56:12;7.68;;;1.80;;
59854;SDS011;45732;52.850;6.896;2023-03-23T14:58:43;9.20;;;2.15;;
59854;SDS011;45732;52.850;6.896;2023-03-23T15:01:14;8.75;;;2.33;;
59854;SDS011;45732;52.850;6.896;2023-03-23T15:04:11;12.00;;;2.40;;
59854;SDS011;45732;52.850;6.896;2023-03-23T15:06:45;10.65;;;2.42;;
59854;SDS011;45732;52.850;6.896;2023-03-23T15:09:18;9.48;;;2.03;;
59854;SDS011;45732;52.850;6.896;2023-03-23T15:11:54;10.60;;;2.33;;
59854;SDS011;45732;52.850;6.896;2023-03-23T15:14:29;10.48;;;2.58;;
59854;SDS011;45732;52.850;6.896;2023-03-23T15:16:58;12.95;;;2.75;;
59854;SDS011;45732;52.850;6.896;2023-03-23T15:19:35;11.25;;;2.40;;
59854;SDS011;45732;52.850;6.896;2023-03-23T15:24:51;9.13;;;2.28;;
59854;SDS011;45732;52.850;6.896;2023-03-23T15:27:29;12.93;;;2.95;;
59854;SDS011;45732;52.850;6.896;2023-03-23T15:29:58;7.90;;;2.30;;
59854;SDS011;45732;52.850;6.896;2023-03-23T15:32:38;10.80;;;2.90;;
59854;SDS011;45732;52.850;6.896;2023-03-23T15:35:13;12.25;;;3.03;;
59854;SDS011;45732;52.850;6.896;2023-03-23T15:37:43;11.85;;;3.65;;
59854;SDS011;45732;52.850;6.896;2023-03-23T15:40:17;12.23;;;3.55;;
59854;SDS011;45732;52.850;6.896;2023-03-23T15:42:45;11.60;;;2.85;;
59854;SDS011;45732;52.850;6.896;2023-03-23T15:47:43;12.98;;;2.72;;
59854;SDS011;45732;52.850;6.896;2023-03-23T15:52:51;12.02;;;2.88;;
59854;SDS011;45732;52.850;6.896;2023-03-23T15:57:47;12.35;;;3.03;;
59854;SDS011;45732;52.850;6.896;2023-03-23T16:00:17;8.02;;;2.53;;
59854;SDS011;45732;52.850;6.896;2023-03-23T16:02:49;11.65;;;2.83;;
59854;SDS011;45732;52.850;6.896;2023-03-23T16:05:20;11.15;;;2.92;;
59854;SDS011;45732;52.850;6.896;2023-03-23T16:07:46;10.55;;;2.60;;
59854;SDS011;45732;52.850;6.896;2023-03-23T16:10:16;11.70;;;2.53;;
59854;SDS011;45732;52.850;6.896;2023-03-23T16:12:43;12.48;;;2.70;;
59854;SDS011;45732;52.850;6.896;2023-03-23T16:15:10;8.52;;;2.25;;
59854;SDS011;45732;52.850;6.896;2023-03-23T16:17:37;9.07;;;2.00;;
59854;SDS011;45732;52.850;6.896;2023-03-23T16:20:08;8.73;;;2.42;;
59854;SDS011;45732;52.850;6.896;2023-03-23T16:22:37;8.57;;;2.33;;
59854;SDS011;45732;52.850;6.896;2023-03-23T16:25:02;8.40;;;2.30;;
59854;SDS011;45732;52.850;6.896;2023-03-23T16:27:29;8.40;;;2.33;;
59854;SDS011;45732;52.850;6.896;2023-03-23T16:29:55;11.15;;;2.13;;
59854;SDS011;45732;52.850;6.896;2023-03-23T16:32:22;8.60;;;2.65;;
59854;SDS011;45732;52.850;6.896;2023-03-23T16:34:48;8.68;;;1.98;;
59854;SDS011;45732;52.850;6.896;2023-03-23T16:37:14;8.85;;;1.80;;
59854;SDS011;45732;52.850;6.896;2023-03-23T16:39:40;7.40;;;1.80;;
59854;SDS011;45732;52.850;6.896;2023-03-23T16:42:06;10.35;;;2.13;;
59854;SDS011;45732;52.850;6.896;2023-03-23T16:44:32;5.85;;;1.85;;
59854;SDS011;45732;52.850;6.896;2023-03-23T16:46:57;7.78;;;2.20;;
59854;SDS011;45732;52.850;6.896;2023-03-23T16:49:23;6.35;;;1.80;;
59854;SDS011;45732;52.850;6.896;2023-03-23T16:51:49;8.93;;;2.05;;
59854;SDS011;45732;52.850;6.896;2023-03-23T16:54:15;6.05;;;1.80;;
59854;SDS011;45732;52.850;6.896;2023-03-23T16:56:41;7.45;;;1.80;;
59854;SDS011;45732;52.850;6.896;2023-03-23T16:59:10;7.07;;;2.03;;
59854;SDS011;45732;52.850;6.896;2023-03-23T17:01:39;8.20;;;2.45;;
59854;SDS011;45732;52.850;6.896;2023-03-23T17:04:07;6.68;;;2.20;;
59854;SDS011;45732;52.850;6.896;2023-03-23T17:06:32;8.10;;;2.50;;
59854;SDS011;45732;52.850;6.896;2023-03-23T17:08:58;6.05;;;1.70;;
59854;SDS011;45732;52.850;6.896;2023-03-23T17:11:24;6.32;;;1.70;;
59854;SDS011;45732;52.850;6.896;2023-03-23T17:13:50;7.45;;;2.00;;
59854;SDS011;45732;52.850;6.896;2023-03-23T17:16:15;7.80;;;2.30;;
59854;SDS011;45732;52.850;6.896;2023-03-23T17:18:41;6.28;;;2.03;;
59854;SDS011;45732;52.850;6.896;2023-03-23T17:21:07;9.50;;;2.20;;
59854;SDS011;45732;52.850;6.896;2023-03-23T17:23:33;7.68;;;1.90;;
59854;SDS011;45732;52.850;6.896;2023-03-23T17:25:59;7.88;;;2.92;;